Time;durP1;ratioP1;P1;durP2;ratioP2;P2;SDS_P1;SDS_P2;PMS_P1;PMS_P2;Temp;Humidity;BMP_temperature;BMP_pressure;BME280_temperature;BME280_humidity;BME280_pressure;Samples;Min_cycle;Max_cycle;Signal;HPM_P1;HPM_P2
2022/11/28 00:00:16;;;;;;;17.77;12.05;;;3.60;99.90;;;;;;4999226;28;20539;-69
2022/11/28 00:02:42;;;;;;;17.88;12.10;;;3.70;99.90;;;;;;4999051;28;20138;-73
2022/11/28 00:05:11;;;;;;;15.82;11.60;;;3.70;99.90;;;;;;4999449;28;20148;-70
2022/11/28 00:07:36;;;;;;;20.33;12.10;;;3.60;99.90;;;;;;5000786;28;20195;-72
2022/11/28 00:10:03;;;;;;;21.08;13.40;;;3.70;99.90;;;;;;5000267;28;20503;-73
2022/11/28 00:12:28;;;;;;;23.95;13.48;;;3.70;99.90;;;;;;5002046;28;20092;-70
2022/11/28 00:14:54;;;;;;;26.48;13.50;;;3.70;99.90;;;;;;4995871;28;20042;-72
2022/11/28 00:17:20;;;;;;;19.02;13.32;;;3.70;99.90;;;;;;5014596;28;20022;-73
2022/11/28 00:19:46;;;;;;;23.33;13.73;;;3.70;99.90;;;;;;5000832;28;20453;-71
2022/11/28 00:22:11;;;;;;;17.73;12.65;;;3.70;99.90;;;;;;5000927;28;20026;-73
2022/11/28 00:24:38;;;;;;;21.65;13.05;;;3.60;99.90;;;;;;5001250;28;20038;-72
2022/11/28 00:27:04;;;;;;;19.50;12.98;;;3.70;99.90;;;;;;5005010;28;20058;-73
2022/11/28 00:29:30;;;;;;;23.40;12.43;;;3.70;99.90;;;;;;4998485;28;20073;-70
2022/11/28 00:31:56;;;;;;;19.65;13.18;;;3.70;99.90;;;;;;4997977;28;20457;-70
2022/11/28 00:34:21;;;;;;;20.95;11.98;;;3.60;99.90;;;;;;5001763;28;20041;-70
2022/11/28 00:36:47;;;;;;;16.35;12.70;;;3.60;99.90;;;;;;4999187;28;20029;-72
2022/11/28 00:39:15;;;;;;;18.52;12.95;;;3.60;99.90;;;;;;5000577;28;20022;-74
2022/11/28 00:41:41;;;;;;;21.02;13.05;;;3.60;99.90;;;;;;5008383;28;20037;-74
2022/11/28 00:44:07;;;;;;;21.58;12.00;;;3.60;99.90;;;;;;5004341;28;20027;-72
2022/11/28 00:46:33;;;;;;;21.90;12.98;;;3.60;99.90;;;;;;5003193;28;20036;-72
2022/11/28 00:48:59;;;;;;;22.30;12.32;;;3.60;99.90;;;;;;5000069;28;20019;-71
2022/11/28 00:51:27;;;;;;;24.20;12.25;;;3.60;99.90;;;;;;4996720;28;20038;-70
2022/11/28 00:53:55;;;;;;;21.92;11.82;;;3.60;99.90;;;;;;4997694;28;20045;-73
2022/11/28 00:56:23;;;;;;;22.02;13.20;;;3.60;99.90;;;;;;4997530;28;20033;-69
2022/11/28 00:58:50;;;;;;;16.50;12.57;;;3.70;99.90;;;;;;4996703;28;20041;-73
2022/11/28 01:01:18;;;;;;;25.80;12.43;;;3.60;99.90;;;;;;4998934;28;20034;-70
2022/11/28 01:03:45;;;;;;;22.45;14.27;;;3.60;99.90;;;;;;5001266;28;20041;-70
2022/11/28 01:06:11;;;;;;;24.35;12.85;;;3.60;99.90;;;;;;4998956;28;20485;-75
2022/11/28 01:08:37;;;;;;;22.50;13.05;;;3.60;99.90;;;;;;4993032;28;20282;-70
2022/11/28 01:11:04;;;;;;;20.08;13.45;;;3.60;99.90;;;;;;5002853;28;20796;-69
2022/11/28 01:13:29;;;;;;;25.23;13.35;;;3.60;99.90;;;;;;5001818;28;20069;-73
2022/11/28 01:15:57;;;;;;;22.35;13.00;;;3.60;99.90;;;;;;5000807;28;20217;-70
2022/11/28 01:18:23;;;;;;;17.48;11.90;;;3.60;99.90;;;;;;4998717;28;20026;-70
2022/11/28 01:20:48;;;;;;;24.27;12.63;;;3.50;99.90;;;;;;5014045;28;20030;-71
2022/11/28 01:23:15;;;;;;;21.17;13.35;;;3.60;99.90;;;;;;5001118;28;20026;-74
2022/11/28 01:25:41;;;;;;;19.63;11.98;;;3.50;99.90;;;;;;5000862;28;20035;-70
2022/11/28 01:28:07;;;;;;;21.83;13.10;;;3.60;99.90;;;;;;4999630;28;20028;-71
2022/11/28 01:30:33;;;;;;;19.48;12.63;;;3.50;99.90;;;;;;4994401;28;20038;-70
2022/11/28 01:32:58;;;;;;;20.63;12.82;;;3.50;99.90;;;;;;4999085;28;20035;-68
2022/11/28 01:35:24;;;;;;;24.42;12.43;;;3.50;99.90;;;;;;5000114;28;20370;-69
2022/11/28 01:37:50;;;;;;;16.60;11.00;;;3.50;99.90;;;;;;5000223;28;20088;-71
2022/11/28 01:40:15;;;;;;;25.30;12.60;;;3.50;99.90;;;;;;5001423;28;20026;-69
2022/11/28 01:42:41;;;;;;;22.83;12.93;;;3.50;99.90;;;;;;4995973;28;20039;-69
2022/11/28 01:45:11;;;;;;;15.75;11.25;;;3.50;99.90;;;;;;5001061;28;20045;-70
2022/11/28 01:47:37;;;;;;;17.13;12.00;;;3.50;99.90;;;;;;4998629;28;20033;-70
2022/11/28 01:50:04;;;;;;;19.13;10.80;;;3.40;99.90;;;;;;5003172;28;20030;-69
2022/11/28 01:52:30;;;;;;;18.90;10.93;;;3.40;99.90;;;;;;4994840;28;20030;-71
2022/11/28 01:54:59;;;;;;;16.88;10.60;;;3.40;99.90;;;;;;5002186;28;20034;-68
2022/11/28 01:57:26;;;;;;;15.50;10.98;;;3.40;99.90;;;;;;5002985;28;20025;-70
2022/11/28 02:00:07;;;;;;;17.40;10.48;;;3.40;99.90;;;;;;5000607;28;20080;-73
2022/11/28 02:02:44;;;;;;;15.63;11.20;;;3.40;99.90;;;;;;5016133;28;20046;-72
2022/11/28 02:05:10;;;;;;;14.75;11.00;;;3.40;99.90;;;;;;4999042;28;20072;-70
2022/11/28 02:07:36;;;;;;;14.30;9.65;;;3.40;99.90;;;;;;5003190;28;20030;-68
2022/11/28 02:10:07;;;;;;;13.10;9.80;;;3.40;99.90;;;;;;5003604;28;20026;-69
2022/11/28 02:12:55;;;;;;;12.05;9.05;;;3.50;99.90;;;;;;5006413;28;20386;-73
2022/11/28 02:16:01;;;;;;;14.80;8.85;;;3.40;99.90;;;;;;5000284;28;20029;-71
2022/11/28 02:18:57;;;;;;;11.93;8.80;;;3.40;99.90;;;;;;4994156;28;20105;-73
2022/11/28 02:21:53;;;;;;;15.27;9.20;;;3.40;99.90;;;;;;5002173;28;20141;-70
2022/11/28 02:24:37;;;;;;;12.38;8.45;;;3.40;99.90;;;;;;4999819;28;20118;-71
2022/11/28 02:27:15;;;;;;;14.00;9.05;;;3.40;99.90;;;;;;4996564;28;20022;-70
2022/11/28 02:30:05;;;;;;;9.70;7.75;;;3.40;99.90;;;;;;4998302;28;20049;-71
2022/11/28 02:32:42;;;;;;;12.75;8.88;;;3.40;99.90;;;;;;4995763;28;20034;-69
2022/11/28 02:35:13;;;;;;;12.15;7.97;;;3.40;99.90;;;;;;4999492;28;20042;-70
2022/11/28 02:38:01;;;;;;;12.38;9.60;;;3.40;99.90;;;;;;5001470;28;20017;-69
2022/11/28 02:40:33;;;;;;;12.55;9.23;;;3.40;99.90;;;;;;4996782;28;20023;-73
2022/11/28 02:43:10;;;;;;;11.43;8.90;;;3.40;99.90;;;;;;4997740;28;20022;-68
2022/11/28 02:46:00;;;;;;;14.73;10.35;;;3.40;99.90;;;;;;4998141;28;20046;-71
2022/11/28 02:48:44;;;;;;;10.82;7.65;;;3.30;99.90;;;;;;4998123;28;20041;-72
2022/11/28 02:51:38;;;;;;;13.15;9.82;;;3.30;99.90;;;;;;4995984;28;20485;-71
2022/11/28 02:54:06;;;;;;;14.13;9.02;;;3.30;99.90;;;;;;4999421;28;20033;-72
2022/11/28 02:56:32;;;;;;;11.63;9.75;;;3.30;99.90;;;;;;5001262;28;20133;-69
2022/11/28 02:58:58;;;;;;;14.70;9.25;;;3.30;99.90;;;;;;4994408;28;20498;-71
2022/11/28 03:01:37;;;;;;;10.23;8.30;;;3.30;99.90;;;;;;4998578;28;20048;-73
2022/11/28 03:04:23;;;;;;;12.90;8.75;;;3.30;99.90;;;;;;4994380;28;20028;-69
2022/11/28 03:07:15;;;;;;;16.80;9.02;;;3.20;99.90;;;;;;5000971;28;20038;-69
2022/11/28 03:09:43;;;;;;;12.85;8.90;;;3.30;99.90;;;;;;4998965;28;20052;-69
2022/11/28 03:12:30;;;;;;;8.45;7.18;;;3.30;99.90;;;;;;4998807;28;20107;-70
2022/11/28 03:14:59;;;;;;;9.95;6.88;;;3.30;99.90;;;;;;4999281;28;20113;-70
2022/11/28 03:17:43;;;;;;;10.48;7.90;;;3.20;99.90;;;;;;4992138;28;20057;-69
2022/11/28 03:20:21;;;;;;;13.98;6.70;;;3.30;99.90;;;;;;4997317;28;20023;-72
2022/11/28 03:23:20;;;;;;;9.15;6.45;;;3.30;99.90;;;;;;4999855;28;20030;-69
2022/11/28 03:25:54;;;;;;;8.38;6.22;;;3.30;99.90;;;;;;4998461;28;20026;-73
2022/11/28 03:28:45;;;;;;;7.53;5.53;;;3.40;99.90;;;;;;4999704;28;20474;-73
2022/11/28 03:31:43;;;;;;;8.73;5.35;;;3.40;99.90;;;;;;5003034;28;20466;-72
2022/11/28 03:34:13;;;;;;;10.07;5.30;;;3.40;99.90;;;;;;5002166;28;20042;-68
2022/11/28 03:37:15;;;;;;;8.00;6.05;;;3.40;99.90;;;;;;4999309;28;20099;-72
2022/11/28 03:39:45;;;;;;;8.00;5.93;;;3.40;99.90;;;;;;4991287;28;20034;-74
2022/11/28 03:42:22;;;;;;;11.48;6.30;;;3.40;99.90;;;;;;4997105;28;20029;-71
2022/11/28 03:45:09;;;;;;;8.70;7.28;;;3.30;99.90;;;;;;4994766;28;20061;-73
2022/11/28 03:47:41;;;;;;;9.25;7.38;;;3.20;99.90;;;;;;4998282;28;20034;-69
2022/11/28 03:50:18;;;;;;;6.85;5.82;;;3.20;99.90;;;;;;4994787;28;20040;-69
2022/11/28 03:52:51;;;;;;;7.60;5.75;;;3.20;99.90;;;;;;4997970;28;20030;-69
2022/11/28 03:55:59;;;;;;;7.43;6.68;;;3.20;99.90;;;;;;5004192;28;20548;-68
2022/11/28 03:58:44;;;;;;;7.22;5.80;;;3.10;99.90;;;;;;4994301;28;20044;-71
2022/11/28 04:01:22;;;;;;;6.57;5.60;;;3.10;99.90;;;;;;4999084;28;20018;-70
2022/11/28 04:04:12;;;;;;;10.57;6.70;;;3.10;99.90;;;;;;5000369;28;20030;-70
2022/11/28 04:07:04;;;;;;;7.80;6.00;;;3.10;99.90;;;;;;4996662;28;20068;-69
2022/11/28 04:09:32;;;;;;;8.52;5.40;;;3.10;99.90;;;;;;4998705;28;20038;-69
2022/11/28 04:12:06;;;;;;;6.65;5.82;;;3.10;99.90;;;;;;4997253;28;20038;-68
2022/11/28 04:14:42;;;;;;;7.72;6.38;;;3.10;99.90;;;;;;5004565;28;20060;-72
2022/11/28 04:17:26;;;;;;;8.77;6.68;;;3.10;99.90;;;;;;5002935;28;20037;-68
2022/11/28 04:20:03;;;;;;;7.50;6.35;;;3.10;99.90;;;;;;4997541;28;20526;-72
2022/11/28 04:22:42;;;;;;;7.25;6.07;;;3.10;99.90;;;;;;5003041;28;20049;-69
2022/11/28 04:25:14;;;;;;;9.60;6.85;;;3.10;99.90;;;;;;5004864;28;20389;-69
2022/11/28 04:27:52;;;;;;;8.73;6.57;;;3.10;99.90;;;;;;5004144;28;20639;-68
2022/11/28 04:30:17;;;;;;;8.95;6.20;;;3.10;99.90;;;;;;5000806;28;20061;-69
2022/11/28 04:32:48;;;;;;;7.03;5.57;;;3.10;99.90;;;;;;5003535;28;20057;-69
2022/11/28 04:35:44;;;;;;;7.75;6.35;;;3.10;99.90;;;;;;4999669;28;20037;-70
2022/11/28 04:38:12;;;;;;;9.52;6.30;;;3.10;99.90;;;;;;5001510;28;20030;-71
2022/11/28 04:40:46;;;;;;;10.20;6.57;;;3.10;99.90;;;;;;4995252;28;20061;-72
2022/11/28 04:43:18;;;;;;;6.88;5.50;;;3.10;99.90;;;;;;5001396;28;20018;-69
2022/11/28 04:45:51;;;;;;;13.27;7.63;;;3.20;99.90;;;;;;5000058;28;20038;-71
2022/11/28 04:48:18;;;;;;;8.25;5.70;;;3.20;99.90;;;;;;4997119;28;20030;-68
2022/11/28 04:51:00;;;;;;;6.55;5.32;;;3.20;99.90;;;;;;5000136;28;20038;-68
2022/11/28 04:53:38;;;;;;;9.45;7.07;;;3.20;99.90;;;;;;4998702;28;20510;-68
2022/11/28 04:56:08;;;;;;;9.50;5.68;;;3.20;99.90;;;;;;4998185;28;20447;-69
2022/11/28 04:58:40;;;;;;;6.05;4.93;;;3.20;99.90;;;;;;5008488;28;20038;-69
2022/11/28 05:01:10;;;;;;;7.07;6.28;;;3.20;99.90;;;;;;4996804;28;20030;-72
2022/11/28 05:03:37;;;;;;;7.28;6.15;;;3.10;99.90;;;;;;5001490;28;20026;-71
2022/11/28 05:06:03;;;;;;;7.13;5.57;;;3.10;99.90;;;;;;5001931;28;20034;-68
2022/11/28 05:08:29;;;;;;;11.27;6.68;;;3.20;99.90;;;;;;4999058;28;20453;-71
2022/11/28 05:10:54;;;;;;;9.57;6.95;;;3.10;99.90;;;;;;4997975;28;20034;-73
2022/11/28 05:13:20;;;;;;;7.15;6.45;;;3.20;99.90;;;;;;4996198;28;20100;-69
2022/11/28 05:15:45;;;;;;;7.18;6.22;;;3.20;99.90;;;;;;4999434;28;20395;-69
2022/11/28 05:18:11;;;;;;;8.00;6.57;;;3.20;99.90;;;;;;5000138;28;20482;-69
2022/11/28 05:20:37;;;;;;;8.35;6.10;;;3.10;99.90;;;;;;4998362;28;20035;-72
2022/11/28 05:23:03;;;;;;;8.18;6.20;;;3.10;99.90;;;;;;4999801;28;20120;-69
2022/11/28 05:25:29;;;;;;;9.38;6.80;;;3.10;99.90;;;;;;4998472;28;20893;-71
2022/11/28 05:27:54;;;;;;;7.40;6.28;;;3.10;99.90;;;;;;5001016;28;20028;-68
2022/11/28 05:30:20;;;;;;;6.93;5.40;;;3.10;99.90;;;;;;5003310;28;20084;-69
2022/11/28 05:32:46;;;;;;;8.13;6.47;;;3.10;99.90;;;;;;4998549;28;20065;-69
2022/11/28 05:35:12;;;;;;;8.10;6.28;;;3.10;99.90;;;;;;5002219;28;20508;-71
2022/11/28 05:37:37;;;;;;;8.40;6.63;;;3.00;99.90;;;;;;5002027;28;20026;-72
2022/11/28 05:40:04;;;;;;;9.55;7.53;;;3.00;99.90;;;;;;5002184;28;20377;-73
2022/11/28 05:42:34;;;;;;;7.95;6.63;;;3.00;99.90;;;;;;5001620;28;20022;-69
2022/11/28 05:45:01;;;;;;;9.63;6.88;;;2.90;99.90;;;;;;4995385;28;20070;-71
2022/11/28 05:47:30;;;;;;;9.40;6.55;;;2.90;99.90;;;;;;4997383;28;20038;-68
2022/11/28 05:49:55;;;;;;;7.20;6.32;;;2.90;99.90;;;;;;4994097;28;20046;-72
2022/11/28 05:52:21;;;;;;;8.43;6.93;;;2.90;99.90;;;;;;4997651;28;20075;-69
2022/11/28 05:54:46;;;;;;;9.40;6.65;;;2.90;99.90;;;;;;4999058;28;20116;-70
2022/11/28 05:57:12;;;;;;;11.52;6.97;;;2.90;99.90;;;;;;4998126;28;20052;-70
2022/11/28 05:59:38;;;;;;;9.93;6.85;;;2.90;99.90;;;;;;4997608;28;20386;-71
2022/11/28 06:02:03;;;;;;;9.60;7.05;;;2.90;99.90;;;;;;4996488;28;20030;-69
2022/11/28 06:04:29;;;;;;;8.90;6.57;;;2.90;99.90;;;;;;4997217;28;20055;-69
2022/11/28 06:06:55;;;;;;;9.98;7.20;;;2.90;99.90;;;;;;4997688;28;20029;-71
2022/11/28 06:09:20;;;;;;;9.57;7.00;;;2.90;99.90;;;;;;4998282;28;20059;-70
2022/11/28 06:11:46;;;;;;;10.45;7.60;;;3.00;99.90;;;;;;4998996;28;20141;-71
2022/11/28 06:14:12;;;;;;;9.93;7.10;;;3.00;99.90;;;;;;4997993;28;20179;-70
2022/11/28 06:16:37;;;;;;;10.02;6.72;;;3.00;99.90;;;;;;4994359;28;20113;-70
2022/11/28 06:19:04;;;;;;;10.57;7.90;;;3.00;99.90;;;;;;5002969;28;20151;-70
2022/11/28 06:21:30;;;;;;;8.50;7.55;;;2.90;99.90;;;;;;4995464;28;20045;-74
2022/11/28 06:23:58;;;;;;;8.57;6.95;;;2.90;99.90;;;;;;4999874;28;20064;-73
2022/11/28 06:26:25;;;;;;;10.27;7.43;;;2.90;99.90;;;;;;4990148;28;20037;-68
2022/11/28 06:28:51;;;;;;;9.63;8.32;;;2.90;99.90;;;;;;5000270;28;20026;-68
2022/11/28 06:31:22;;;;;;;9.15;7.35;;;2.90;99.90;;;;;;4996664;28;20037;-70
2022/11/28 06:33:48;;;;;;;;;;;2.90;99.90;;;;;;5000603;28;20022;-68
2022/11/28 06:36:15;;;;;;;8.98;7.45;;;2.90;99.90;;;;;;4999348;28;20863;-69
2022/11/28 06:38:41;;;;;;;9.90;7.78;;;2.90;99.90;;;;;;4996015;28;20030;-70
2022/11/28 06:41:10;;;;;;;11.13;7.43;;;3.00;99.90;;;;;;4992791;28;20037;-69
2022/11/28 06:43:35;;;;;;;9.10;6.88;;;3.00;99.90;;;;;;4996995;28;20033;-68
2022/11/28 06:46:01;;;;;;;9.73;7.93;;;3.00;99.90;;;;;;4999018;28;20034;-71
2022/11/28 06:48:27;;;;;;;9.82;7.85;;;3.00;99.90;;;;;;4997390;28;20061;-70
2022/11/28 06:51:00;;;;;;;8.73;6.93;;;3.00;99.90;;;;;;4999697;28;20026;-69
2022/11/28 06:53:25;;;;;;;9.77;7.57;;;3.00;99.90;;;;;;4998576;28;20060;-67
2022/11/28 06:55:51;;;;;;;11.32;7.82;;;3.10;99.90;;;;;;4997004;28;20061;-68
2022/11/28 06:58:17;;;;;;;10.27;6.85;;;3.00;99.90;;;;;;4996176;28;20113;-70
2022/11/28 07:00:44;;;;;;;10.90;7.05;;;3.00;99.90;;;;;;4997066;28;20516;-67
2022/11/28 07:03:11;;;;;;;10.07;7.10;;;3.10;99.90;;;;;;4994984;28;20038;-68
2022/11/28 07:05:37;;;;;;;10.00;7.60;;;3.10;99.90;;;;;;4996487;28;20281;-67
2022/11/28 07:08:03;;;;;;;11.25;7.60;;;3.10;99.90;;;;;;4997178;28;20045;-67
2022/11/28 07:10:28;;;;;;;10.60;7.80;;;3.10;99.90;;;;;;4998653;28;20029;-69
2022/11/28 07:12:58;;;;;;;10.85;7.40;;;3.10;99.90;;;;;;4995924;28;20026;-69
2022/11/28 07:15:24;;;;;;;10.50;7.60;;;3.20;99.90;;;;;;4995900;28;20054;-69
2022/11/28 07:17:50;;;;;;;11.95;7.78;;;3.20;99.90;;;;;;4994450;28;20038;-70
2022/11/28 07:20:16;;;;;;;10.18;8.05;;;3.20;99.90;;;;;;5005293;28;20039;-71
2022/11/28 07:22:42;;;;;;;9.77;7.72;;;3.20;99.90;;;;;;5000999;28;20453;-70
2022/11/28 07:25:09;;;;;;;12.75;9.00;;;3.20;99.90;;;;;;4995725;28;20037;-70
2022/11/28 07:27:34;;;;;;;11.38;8.05;;;3.20;99.90;;;;;;5000770;28;20119;-71
2022/11/28 07:30:00;;;;;;;9.88;8.02;;;3.30;99.90;;;;;;4994251;28;20122;-69
2022/11/28 07:32:26;;;;;;;10.00;7.72;;;3.30;99.90;;;;;;4996335;28;20088;-72
2022/11/28 07:34:51;;;;;;;11.25;7.38;;;3.20;99.90;;;;;;4996985;28;20485;-74
2022/11/28 07:37:17;;;;;;;15.13;8.75;;;3.30;99.90;;;;;;4997360;28;20525;-69
2022/11/28 07:39:43;;;;;;;13.00;9.13;;;3.30;99.90;;;;;;4995881;28;20355;-70
2022/11/28 07:42:10;;;;;;;9.95;7.40;;;3.30;99.90;;;;;;4997470;28;20362;-70
2022/11/28 07:44:35;;;;;;;11.52;8.10;;;3.30;99.90;;;;;;4997335;28;20484;-70
2022/11/28 07:47:01;;;;;;;11.88;8.10;;;3.30;99.90;;;;;;4997466;28;20040;-70
2022/11/28 07:49:27;;;;;;;14.00;9.85;;;3.30;99.90;;;;;;4999760;28;20033;-69
2022/11/28 07:51:53;;;;;;;11.68;9.02;;;3.30;99.90;;;;;;4996899;28;20363;-69
2022/11/28 07:54:18;;;;;;;15.68;8.77;;;3.30;99.90;;;;;;4999620;28;20030;-72
2022/11/28 07:56:44;;;;;;;13.32;8.90;;;3.30;99.90;;;;;;5000844;28;20121;-69
2022/11/28 07:59:10;;;;;;;10.23;8.20;;;3.30;99.90;;;;;;4995942;28;20223;-72
2022/11/28 08:01:35;;;;;;;15.93;8.98;;;3.40;99.90;;;;;;5001102;28;20089;-73
2022/11/28 08:04:04;;;;;;;13.02;9.32;;;3.40;99.90;;;;;;4998206;28;20053;-70
2022/11/28 08:06:33;;;;;;;15.00;9.63;;;3.40;99.90;;;;;;4998965;28;20034;-69
2022/11/28 08:09:00;;;;;;;11.90;8.55;;;3.40;99.90;;;;;;4998568;28;20038;-69
2022/11/28 08:11:28;;;;;;;12.75;9.10;;;3.50;99.90;;;;;;4998048;28;20603;-70
2022/11/28 08:13:56;;;;;;;16.58;10.32;;;3.50;99.90;;;;;;4997403;28;20556;-69
2022/11/28 08:16:23;;;;;;;16.33;9.13;;;3.60;99.90;;;;;;4998673;28;20497;-69
2022/11/28 08:18:50;;;;;;;17.98;9.48;;;3.60;99.90;;;;;;4997439;28;20554;-72
2022/11/28 08:21:28;;;;;;;12.90;8.35;;;3.60;99.90;;;;;;4997807;28;20046;-71
2022/11/28 08:23:57;;;;;;;15.02;9.60;;;3.70;99.90;;;;;;5002352;28;20044;-69
2022/11/28 08:26:24;;;;;;;9.93;8.18;;;3.70;99.90;;;;;;5000772;28;20037;-72
2022/11/28 08:28:52;;;;;;;12.38;9.10;;;3.80;99.90;;;;;;4999266;28;20088;-70
2022/11/28 08:31:20;;;;;;;10.52;8.20;;;3.90;99.90;;;;;;4998550;28;20053;-70
2022/11/28 08:33:47;;;;;;;16.88;9.73;;;3.90;99.90;;;;;;4999284;28;20033;-69
2022/11/28 08:36:14;;;;;;;12.52;8.40;;;3.90;99.90;;;;;;4996812;28;20046;-69
2022/11/28 08:38:41;;;;;;;13.40;9.15;;;3.80;99.90;;;;;;4997022;28;20081;-69
2022/11/28 08:41:10;;;;;;;19.45;9.88;;;3.80;99.90;;;;;;4998505;28;20061;-72
2022/11/28 08:43:36;;;;;;;13.75;9.77;;;3.80;99.90;;;;;;4999100;28;20409;-73
2022/11/28 08:46:04;;;;;;;23.35;10.27;;;3.90;99.90;;;;;;4994794;28;20019;-72
2022/11/28 08:48:30;;;;;;;14.60;10.20;;;3.90;99.90;;;;;;4996382;28;20052;-70
2022/11/28 08:50:55;;;;;;;16.35;10.82;;;4.00;99.90;;;;;;4997608;28;20209;-71
2022/11/28 08:53:22;;;;;;;15.15;10.07;;;4.00;99.90;;;;;;4999571;28;20521;-69
2022/11/28 08:55:47;;;;;;;16.95;10.48;;;4.10;99.90;;;;;;4998352;28;20057;-69
2022/11/28 08:58:14;;;;;;;14.80;10.77;;;4.00;99.90;;;;;;4997287;28;20297;-69
2022/11/28 09:00:43;;;;;;;12.98;9.55;;;4.10;99.90;;;;;;5004688;28;20106;-68
2022/11/28 09:03:17;;;;;;;12.75;9.07;;;4.00;99.90;;;;;;5000513;28;20038;-67
2022/11/28 09:05:45;;;;;;;13.18;9.70;;;4.00;99.90;;;;;;4998981;28;20033;-68
2022/11/28 09:08:11;;;;;;;15.15;10.77;;;4.10;99.90;;;;;;4995101;28;20031;-67
2022/11/28 09:10:39;;;;;;;15.73;11.13;;;4.10;99.90;;;;;;4996035;28;20038;-68
2022/11/28 09:13:05;;;;;;;12.88;9.88;;;4.20;99.90;;;;;;4998379;28;20638;-68
2022/11/28 09:15:31;;;;;;;10.00;8.45;;;4.20;99.90;;;;;;4999359;28;20048;-68
2022/11/28 09:17:57;;;;;;;10.25;8.75;;;4.30;99.90;;;;;;4999783;28;20026;-68
2022/11/28 09:20:23;;;;;;;14.50;10.38;;;4.30;99.90;;;;;;5000384;28;20034;-68
2022/11/28 09:22:49;;;;;;;11.68;9.43;;;4.40;99.90;;;;;;4993931;28;20486;-68
2022/11/28 09:25:15;;;;;;;11.55;9.88;;;4.40;99.90;;;;;;5000920;28;20041;-68
2022/11/28 09:27:40;;;;;;;14.18;9.43;;;4.40;99.90;;;;;;4998562;28;20026;-68
2022/11/28 09:30:07;;;;;;;10.05;8.38;;;4.50;99.90;;;;;;5001975;28;20045;-68
2022/11/28 09:32:33;;;;;;;13.15;10.27;;;4.50;99.90;;;;;;4996720;28;20053;-68
2022/11/28 09:34:59;;;;;;;11.23;9.75;;;4.50;99.90;;;;;;4992829;28;20030;-68
2022/11/28 09:37:27;;;;;;;10.77;9.30;;;4.50;99.90;;;;;;5002245;28;20085;-68
2022/11/28 09:39:52;;;;;;;14.52;9.80;;;4.50;99.90;;;;;;4995369;28;20019;-68
2022/11/28 09:42:29;;;;;;;9.85;8.05;;;4.50;99.90;;;;;;4995272;28;20038;-68
2022/11/28 09:45:02;;;;;;;11.90;9.10;;;4.50;99.90;;;;;;4997753;28;20026;-68
2022/11/28 09:47:30;;;;;;;11.80;8.70;;;4.50;99.90;;;;;;4996198;28;20023;-68
2022/11/28 09:50:09;;;;;;;11.32;8.48;;;4.60;99.90;;;;;;4996493;28;20044;-68
2022/11/28 09:52:50;;;;;;;10.93;8.82;;;4.50;99.90;;;;;;4999596;28;20393;-68
2022/11/28 09:55:36;;;;;;;13.02;9.82;;;4.60;99.90;;;;;;4995043;28;20055;-69
2022/11/28 09:58:27;;;;;;;13.18;9.23;;;4.60;99.90;;;;;;4997391;28;20022;-68
2022/11/28 10:01:23;;;;;;;11.43;9.05;;;4.60;99.90;;;;;;4976143;28;20121;-68
2022/11/28 10:04:07;;;;;;;13.88;9.10;;;4.60;99.90;;;;;;4973066;28;20035;-68
2022/11/28 10:06:41;;;;;;;14.82;10.10;;;4.60;99.90;;;;;;4977109;28;20118;-68
2022/11/28 10:09:13;;;;;;;15.57;9.05;;;4.50;99.90;;;;;;4977600;28;20050;-68
2022/11/28 10:12:06;;;;;;;17.08;9.52;;;4.50;99.90;;;;;;4977189;28;20135;-67
2022/11/28 10:14:47;;;;;;;11.35;9.48;;;4.50;99.90;;;;;;4975656;28;20057;-68
2022/11/28 10:17:28;;;;;;;9.63;8.53;;;4.50;99.90;;;;;;4973109;28;20502;-68
2022/11/28 10:20:12;;;;;;;10.27;8.57;;;4.60;99.90;;;;;;4974924;28;20381;-68
2022/11/28 10:23:02;;;;;;;10.68;8.00;;;4.60;99.90;;;;;;4973369;28;20055;-68
2022/11/28 10:25:32;;;;;;;13.40;9.05;;;4.60;99.90;;;;;;4974136;28;20534;-68
2022/11/28 10:27:58;;;;;;;15.95;9.23;;;4.60;99.90;;;;;;4973947;28;20120;-68
2022/11/28 10:30:32;;;;;;;11.48;9.35;;;4.60;99.90;;;;;;4989827;28;20574;-69
2022/11/28 10:33:07;;;;;;;11.80;9.18;;;4.60;99.90;;;;;;4977964;28;20434;-68
2022/11/28 10:35:47;;;;;;;10.48;7.90;;;4.50;99.90;;;;;;4977440;28;20038;-68
2022/11/28 10:38:14;;;;;;;11.85;8.15;;;4.60;99.90;;;;;;4978994;28;20446;-69
2022/11/28 10:40:51;;;;;;;12.95;8.55;;;4.50;99.90;;;;;;4978467;28;20040;-66
2022/11/28 10:43:34;;;;;;;9.52;8.35;;;4.60;99.90;;;;;;4973768;28;20031;-68
2022/11/28 10:46:28;;;;;;;15.73;8.93;;;4.60;99.90;;;;;;4977328;28;20021;-66
2022/11/28 10:49:00;;;;;;;15.30;9.70;;;4.60;99.90;;;;;;4979547;28;20038;-66
2022/11/28 10:51:48;;;;;;;12.55;9.20;;;4.70;99.90;;;;;;4978402;28;20060;-67
2022/11/28 10:54:41;;;;;;;11.27;8.43;;;4.70;99.90;;;;;;4974840;28;20062;-66
2022/11/28 10:57:25;;;;;;;10.13;7.93;;;4.80;99.90;;;;;;4976396;28;20038;-67
2022/11/28 11:00:01;;;;;;;10.98;8.02;;;4.90;99.90;;;;;;4974826;28;20043;-65
2022/11/28 11:02:39;;;;;;;14.68;9.00;;;4.90;99.90;;;;;;4978088;28;20041;-67
2022/11/28 11:05:10;;;;;;;12.85;8.95;;;4.90;99.90;;;;;;4972960;28;20026;-73
2022/11/28 11:07:36;;;;;;;;;;;4.90;99.90;;;;;;4984300;28;20063;-72
2022/11/28 11:10:13;;;;;;;14.55;10.20;;;4.90;99.90;;;;;;4978423;28;19960;-68
2022/11/28 11:12:39;;;;;;;10.65;8.32;;;5.00;99.90;;;;;;4979741;28;20101;-70
2022/11/28 11:15:31;;;;;;;9.75;8.00;;;5.00;99.90;;;;;;4976495;28;20042;-72
2022/11/28 11:18:04;;;;;;;10.13;8.45;;;5.00;99.90;;;;;;4975973;28;20059;-71
2022/11/28 11:20:38;;;;;;;12.27;9.07;;;5.10;99.90;;;;;;4978787;28;20027;-67
2022/11/28 11:23:16;;;;;;;10.60;8.38;;;5.10;99.90;;;;;;4985714;28;20632;-69
2022/11/28 11:25:57;;;;;;;10.90;7.85;;;5.20;99.90;;;;;;4979645;28;20203;-71
2022/11/28 11:28:31;;;;;;;10.32;7.78;;;5.20;99.90;;;;;;4981312;28;20031;-71
2022/11/28 11:31:04;;;;;;;9.63;8.05;;;5.20;99.90;;;;;;4980611;28;20018;-71
2022/11/28 11:33:34;;;;;;;13.05;8.40;;;5.20;99.90;;;;;;4983487;28;20030;-68
2022/11/28 11:36:03;;;;;;;11.15;9.00;;;5.20;99.90;;;;;;4984698;28;20042;-68
2022/11/28 11:38:33;;;;;;;10.52;8.50;;;5.20;99.90;;;;;;4980415;28;20035;-67
2022/11/28 11:41:19;;;;;;;11.75;8.55;;;5.20;99.90;;;;;;4983208;28;20620;-66
2022/11/28 11:43:45;;;;;;;10.75;8.32;;;5.20;99.90;;;;;;4983217;28;20044;-66
2022/11/28 11:46:15;;;;;;;9.75;8.30;;;5.30;99.90;;;;;;4981588;28;20232;-66
2022/11/28 11:48:46;;;;;;;10.05;7.80;;;5.40;99.90;;;;;;4979660;28;20046;-66
2022/11/28 11:51:23;;;;;;;;;;;5.40;99.90;;;;;;4982459;28;20086;-66
2022/11/28 11:54:00;;;;;;;9.32;8.35;;;5.50;99.90;;;;;;4979831;28;20290;-66
2022/11/28 11:56:29;;;;;;;12.73;8.15;;;5.60;99.90;;;;;;4980111;28;20091;-66
2022/11/28 11:58:57;;;;;;;12.98;8.85;;;5.60;99.90;;;;;;4978939;28;20107;-66
2022/11/28 12:01:24;;;;;;;13.07;9.13;;;5.50;99.90;;;;;;4978665;28;20033;-66
2022/11/28 12:03:57;;;;;;;11.40;9.82;;;5.50;99.90;;;;;;4977248;28;20125;-67
2022/11/28 12:06:33;;;;;;;9.52;7.50;;;5.50;99.90;;;;;;4977412;28;20379;-66
2022/11/28 12:09:06;;;;;;;8.75;7.68;;;5.50;99.90;;;;;;4982254;28;20026;-67
2022/11/28 12:11:37;;;;;;;9.68;8.07;;;5.60;99.90;;;;;;4981731;28;20101;-67
2022/11/28 12:14:34;;;;;;;11.07;7.72;;;5.60;99.90;;;;;;4982301;28;20034;-67
2022/11/28 12:17:36;;;;;;;11.63;8.68;;;5.60;99.90;;;;;;4973570;28;20042;-67
2022/11/28 12:20:14;;;;;;;4.65;3.33;;;5.60;99.90;;;;;;4979337;28;20035;-65
2022/11/28 12:23:01;;;;;;;4.57;3.47;;;5.50;99.90;;;;;;4992992;28;20034;-66
2022/11/28 12:25:36;;;;;;;3.70;2.78;;;5.50;99.90;;;;;;4984068;28;20037;-66
2022/11/28 12:28:23;;;;;;;3.33;2.78;;;5.60;99.90;;;;;;4983805;28;20027;-66
2022/11/28 12:30:51;;;;;;;5.03;3.47;;;5.60;99.90;;;;;;4977712;28;20046;-66
2022/11/28 12:33:50;;;;;;;12.00;8.40;;;5.60;99.90;;;;;;4994931;28;20026;-66
2022/11/28 12:36:45;;;;;;;11.20;7.40;;;5.60;99.90;;;;;;4993519;28;20069;-66
2022/11/28 12:39:31;;;;;;;8.52;7.15;;;5.70;99.90;;;;;;4996137;28;20053;-66
2022/11/28 12:42:18;;;;;;;9.38;7.15;;;5.80;99.90;;;;;;5001259;28;20041;-67
2022/11/28 12:44:56;;;;;;;10.05;7.60;;;5.70;99.90;;;;;;4997222;28;20401;-67
2022/11/28 12:47:52;;;;;;;12.07;7.47;;;5.70;99.90;;;;;;4998010;28;20027;-66
2022/11/28 12:50:38;;;;;;;8.70;6.70;;;5.70;99.90;;;;;;4998343;28;20033;-66
2022/11/28 12:53:13;;;;;;;8.05;6.78;;;5.70;99.90;;;;;;4997299;28;20080;-66
2022/11/28 12:55:53;;;;;;;14.15;8.55;;;5.70;99.90;;;;;;4992372;28;20034;-66
2022/11/28 12:58:56;;;;;;;8.48;7.05;;;5.70;99.90;;;;;;4998785;28;20026;-66
2022/11/28 13:01:28;;;;;;;8.80;7.30;;;5.70;99.90;;;;;;4992812;28;20037;-66
2022/11/28 13:04:02;;;;;;;10.15;6.82;;;5.60;99.90;;;;;;4997841;28;20029;-66
2022/11/28 13:06:37;;;;;;;8.95;7.35;;;5.50;99.90;;;;;;4999666;28;20057;-66
2022/11/28 13:09:27;;;;;;;10.75;8.07;;;5.50;99.90;;;;;;4998712;28;20038;-66
2022/11/28 13:12:19;;;;;;;10.70;8.05;;;5.50;99.90;;;;;;4979243;28;20038;-66
2022/11/28 13:14:55;;;;;;;10.10;8.25;;;5.40;99.90;;;;;;4996046;28;20073;-66